sensor_id;sensor_type;location;lat;lon;timestamp;P1;durP1;ratioP1;P2;durP2;ratioP2
50769;SDS011;36740;48.698;11.472;2022-12-07T00:01:14;5.10;;;3.55;;
50769;SDS011;36740;48.698;11.472;2022-12-07T00:04:01;6.07;;;4.55;;
50769;SDS011;36740;48.698;11.472;2022-12-07T00:06:51;8.48;;;4.30;;
50769;SDS011;36740;48.698;11.472;2022-12-07T00:09:37;10.98;;;5.30;;
50769;SDS011;36740;48.698;11.472;2022-12-07T00:12:24;8.30;;;6.15;;
50769;SDS011;36740;48.698;11.472;2022-12-07T00:15:09;9.77;;;6.82;;
50769;SDS011;36740;48.698;11.472;2022-12-07T00:17:55;8.55;;;4.95;;
50769;SDS011;36740;48.698;11.472;2022-12-07T00:20:41;8.90;;;5.32;;
50769;SDS011;36740;48.698;11.472;2022-12-07T00:23:26;7.63;;;5.35;;
50769;SDS011;36740;48.698;11.472;2022-12-07T00:26:13;10.48;;;6.38;;
50769;SDS011;36740;48.698;11.472;2022-12-07T00:29:04;7.57;;;4.57;;
50769;SDS011;36740;48.698;11.472;2022-12-07T00:31:50;13.15;;;6.40;;
50769;SDS011;36740;48.698;11.472;2022-12-07T00:34:35;9.50;;;5.75;;
50769;SDS011;36740;48.698;11.472;2022-12-07T00:37:21;10.52;;;5.53;;
50769;SDS011;36740;48.698;11.472;2022-12-07T00:40:07;7.25;;;5.00;;
50769;SDS011;36740;48.698;11.472;2022-12-07T00:42:52;10.05;;;5.57;;
50769;SDS011;36740;48.698;11.472;2022-12-07T00:45:38;7.47;;;4.15;;
50769;SDS011;36740;48.698;11.472;2022-12-07T00:48:24;8.80;;;6.10;;
50769;SDS011;36740;48.698;11.472;2022-12-07T00:51:10;9.95;;;6.05;;
50769;SDS011;36740;48.698;11.472;2022-12-07T00:53:56;10.77;;;5.85;;
50769;SDS011;36740;48.698;11.472;2022-12-07T00:56:41;9.15;;;4.85;;
50769;SDS011;36740;48.698;11.472;2022-12-07T00:59:27;10.77;;;6.68;;
50769;SDS011;36740;48.698;11.472;2022-12-07T01:02:13;9.43;;;6.45;;
50769;SDS011;36740;48.698;11.472;2022-12-07T01:04:58;7.78;;;4.80;;
50769;SDS011;36740;48.698;11.472;2022-12-07T01:07:44;8.95;;;5.07;;
50769;SDS011;36740;48.698;11.472;2022-12-07T01:10:31;10.88;;;5.22;;
50769;SDS011;36740;48.698;11.472;2022-12-07T01:13:17;13.07;;;6.90;;
50769;SDS011;36740;48.698;11.472;2022-12-07T01:16:03;10.02;;;7.40;;
50769;SDS011;36740;48.698;11.472;2022-12-07T01:18:51;10.45;;;5.38;;
50769;SDS011;36740;48.698;11.472;2022-12-07T01:21:37;10.75;;;6.47;;
50769;SDS011;36740;48.698;11.472;2022-12-07T01:24:23;6.85;;;4.55;;
50769;SDS011;36740;48.698;11.472;2022-12-07T01:27:09;9.73;;;5.93;;
50769;SDS011;36740;48.698;11.472;2022-12-07T01:29:54;7.38;;;5.28;;
50769;SDS011;36740;48.698;11.472;2022-12-07T01:32:40;8.82;;;6.10;;
50769;SDS011;36740;48.698;11.472;2022-12-07T01:35:26;10.65;;;5.93;;
50769;SDS011;36740;48.698;11.472;2022-12-07T01:38:11;11.48;;;6.10;;
50769;SDS011;36740;48.698;11.472;2022-12-07T01:40:57;10.75;;;5.13;;
50769;SDS011;36740;48.698;11.472;2022-12-07T01:46:58;10.98;;;6.20;;
50769;SDS011;36740;48.698;11.472;2022-12-07T01:49:44;9.32;;;6.32;;
50769;SDS011;36740;48.698;11.472;2022-12-07T01:52:31;9.05;;;6.55;;
50769;SDS011;36740;48.698;11.472;2022-12-07T01:55:21;10.02;;;8.60;;
50769;SDS011;36740;48.698;11.472;2022-12-07T01:58:07;14.63;;;6.80;;
50769;SDS011;36740;48.698;11.472;2022-12-07T02:00:53;10.73;;;6.72;;
50769;SDS011;36740;48.698;11.472;2022-12-07T02:03:40;9.60;;;5.00;;
50769;SDS011;36740;48.698;11.472;2022-12-07T02:06:26;11.85;;;6.88;;
50769;SDS011;36740;48.698;11.472;2022-12-07T02:09:12;13.05;;;8.02;;
50769;SDS011;36740;48.698;11.472;2022-12-07T02:11:57;11.85;;;7.18;;
50769;SDS011;36740;48.698;11.472;2022-12-07T02:14:43;10.25;;;6.57;;
50769;SDS011;36740;48.698;11.472;2022-12-07T02:17:32;15.07;;;6.90;;
50769;SDS011;36740;48.698;11.472;2022-12-07T02:20:39;11.98;;;4.95;;
50769;SDS011;36740;48.698;11.472;2022-12-07T02:29:17;8.88;;;6.05;;
50769;SDS011;36740;48.698;11.472;2022-12-07T02:40:46;9.05;;;5.72;;
50769;SDS011;36740;48.698;11.472;2022-12-07T02:43:38;9.75;;;6.30;;
50769;SDS011;36740;48.698;11.472;2022-12-07T02:46:32;13.30;;;7.75;;
50769;SDS011;36740;48.698;11.472;2022-12-07T02:49:19;11.43;;;7.70;;
50769;SDS011;36740;48.698;11.472;2022-12-07T02:52:06;10.95;;;7.13;;
50769;SDS011;36740;48.698;11.472;2022-12-07T02:54:52;10.60;;;5.97;;
50769;SDS011;36740;48.698;11.472;2022-12-07T02:57:41;12.52;;;6.13;;
50769;SDS011;36740;48.698;11.472;2022-12-07T03:00:31;13.63;;;7.13;;
50769;SDS011;36740;48.698;11.472;2022-12-07T03:03:20;12.82;;;7.25;;
50769;SDS011;36740;48.698;11.472;2022-12-07T03:06:11;10.48;;;6.25;;
50769;SDS011;36740;48.698;11.472;2022-12-07T03:11:52;12.23;;;7.28;;
50769;SDS011;36740;48.698;11.472;2022-12-07T03:14:52;11.85;;;9.00;;
50769;SDS011;36740;48.698;11.472;2022-12-07T03:17:41;14.52;;;7.70;;
50769;SDS011;36740;48.698;11.472;2022-12-07T03:20:29;9.65;;;7.72;;
50769;SDS011;36740;48.698;11.472;2022-12-07T03:23:17;14.10;;;8.15;;
50769;SDS011;36740;48.698;11.472;2022-12-07T03:26:03;11.88;;;7.70;;
50769;SDS011;36740;48.698;11.472;2022-12-07T03:28:51;11.75;;;7.13;;
50769;SDS011;36740;48.698;11.472;2022-12-07T03:31:39;12.57;;;7.85;;
50769;SDS011;36740;48.698;11.472;2022-12-07T03:34:40;12.55;;;7.72;;
50769;SDS011;36740;48.698;11.472;2022-12-07T03:37:33;11.77;;;8.07;;
50769;SDS011;36740;48.698;11.472;2022-12-07T03:40:25;12.80;;;7.75;;
50769;SDS011;36740;48.698;11.472;2022-12-07T03:43:15;9.82;;;7.07;;
50769;SDS011;36740;48.698;11.472;2022-12-07T03:55:02;13.55;;;7.00;;
50769;SDS011;36740;48.698;11.472;2022-12-07T03:57:51;14.50;;;8.85;;
50769;SDS011;36740;48.698;11.472;2022-12-07T04:00:39;10.93;;;7.88;;
50769;SDS011;36740;48.698;11.472;2022-12-07T04:03:25;16.67;;;10.55;;
50769;SDS011;36740;48.698;11.472;2022-12-07T04:06:11;8.68;;;6.75;;
50769;SDS011;36740;48.698;11.472;2022-12-07T04:08:56;11.73;;;6.80;;
50769;SDS011;36740;48.698;11.472;2022-12-07T04:11:42;11.77;;;7.95;;
50769;SDS011;36740;48.698;11.472;2022-12-07T04:14:28;13.10;;;9.23;;
50769;SDS011;36740;48.698;11.472;2022-12-07T04:17:13;11.70;;;7.82;;
50769;SDS011;36740;48.698;11.472;2022-12-07T04:19:59;12.90;;;7.57;;
50769;SDS011;36740;48.698;11.472;2022-12-07T04:22:44;13.75;;;8.88;;
50769;SDS011;36740;48.698;11.472;2022-12-07T04:25:30;13.73;;;9.05;;
50769;SDS011;36740;48.698;11.472;2022-12-07T04:28:16;9.07;;;6.10;;
50769;SDS011;36740;48.698;11.472;2022-12-07T04:31:01;12.20;;;7.75;;
50769;SDS011;36740;48.698;11.472;2022-12-07T04:33:47;12.90;;;7.78;;
50769;SDS011;36740;48.698;11.472;2022-12-07T04:36:33;11.70;;;6.15;;
50769;SDS011;36740;48.698;11.472;2022-12-07T04:42:07;31.38;;;7.47;;
50769;SDS011;36740;48.698;11.472;2022-12-07T04:44:53;12.68;;;8.20;;
50769;SDS011;36740;48.698;11.472;2022-12-07T04:47:39;12.48;;;8.15;;
50769;SDS011;36740;48.698;11.472;2022-12-07T04:50:25;13.88;;;8.77;;
50769;SDS011;36740;48.698;11.472;2022-12-07T04:53:10;13.05;;;9.23;;
50769;SDS011;36740;48.698;11.472;2022-12-07T04:55:58;10.73;;;6.55;;
50769;SDS011;36740;48.698;11.472;2022-12-07T04:58:46;13.52;;;6.93;;
50769;SDS011;36740;48.698;11.472;2022-12-07T05:01:32;11.32;;;6.57;;
50769;SDS011;36740;48.698;11.472;2022-12-07T05:04:18;12.95;;;8.85;;
50769;SDS011;36740;48.698;11.472;2022-12-07T05:07:04;8.57;;;6.38;;
50769;SDS011;36740;48.698;11.472;2022-12-07T05:09:49;8.80;;;6.03;;
50769;SDS011;36740;48.698;11.472;2022-12-07T05:12:35;13.93;;;8.45;;
50769;SDS011;36740;48.698;11.472;2022-12-07T05:15:20;14.57;;;7.05;;
50769;SDS011;36740;48.698;11.472;2022-12-07T05:18:06;14.75;;;8.07;;
50769;SDS011;36740;48.698;11.472;2022-12-07T05:20:52;14.65;;;8.25;;
50769;SDS011;36740;48.698;11.472;2022-12-07T05:23:38;13.02;;;7.32;;
50769;SDS011;36740;48.698;11.472;2022-12-07T05:26:23;15.50;;;8.05;;
50769;SDS011;36740;48.698;11.472;2022-12-07T05:29:10;13.95;;;8.65;;
50769;SDS011;36740;48.698;11.472;2022-12-07T05:31:56;13.32;;;10.32;;
50769;SDS011;36740;48.698;11.472;2022-12-07T05:34:42;12.10;;;8.52;;
50769;SDS011;36740;48.698;11.472;2022-12-07T05:37:27;15.60;;;9.00;;
50769;SDS011;36740;48.698;11.472;2022-12-07T05:40:13;16.52;;;7.90;;
50769;SDS011;36740;48.698;11.472;2022-12-07T05:42:59;15.95;;;9.02;;
50769;SDS011;36740;48.698;11.472;2022-12-07T05:45:45;13.52;;;8.30;;
50769;SDS011;36740;48.698;11.472;2022-12-07T05:48:30;13.43;;;8.25;;
50769;SDS011;36740;48.698;11.472;2022-12-07T05:51:16;13.80;;;8.93;;
50769;SDS011;36740;48.698;11.472;2022-12-07T05:54:02;12.10;;;7.22;;
50769;SDS011;36740;48.698;11.472;2022-12-07T05:56:48;11.60;;;7.22;;
50769;SDS011;36740;48.698;11.472;2022-12-07T05:59:33;12.27;;;10.20;;
50769;SDS011;36740;48.698;11.472;2022-12-07T06:02:19;15.48;;;10.40;;
50769;SDS011;36740;48.698;11.472;2022-12-07T06:05:05;13.30;;;8.77;;
50769;SDS011;36740;48.698;11.472;2022-12-07T06:07:50;14.57;;;9.23;;
50769;SDS011;36740;48.698;11.472;2022-12-07T06:10:36;17.75;;;9.70;;
50769;SDS011;36740;48.698;11.472;2022-12-07T06:13:22;13.05;;;8.70;;
50769;SDS011;36740;48.698;11.472;2022-12-07T06:16:07;14.80;;;10.20;;
50769;SDS011;36740;48.698;11.472;2022-12-07T06:18:54;16.13;;;11.82;;
50769;SDS011;36740;48.698;11.472;2022-12-07T06:21:39;16.55;;;8.55;;
50769;SDS011;36740;48.698;11.472;2022-12-07T06:24:25;29.35;;;13.32;;
50769;SDS011;36740;48.698;11.472;2022-12-07T06:27:11;18.73;;;11.68;;
50769;SDS011;36740;48.698;11.472;2022-12-07T06:29:56;17.73;;;9.52;;
50769;SDS011;36740;48.698;11.472;2022-12-07T06:32:42;24.50;;;11.02;;
50769;SDS011;36740;48.698;11.472;2022-12-07T06:35:28;18.20;;;9.95;;
50769;SDS011;36740;48.698;11.472;2022-12-07T06:38:13;15.88;;;9.25;;
50769;SDS011;36740;48.698;11.472;2022-12-07T06:40:59;12.88;;;9.43;;
50769;SDS011;36740;48.698;11.472;2022-12-07T06:43:44;29.95;;;11.05;;
50769;SDS011;36740;48.698;11.472;2022-12-07T06:46:30;13.68;;;9.68;;
50769;SDS011;36740;48.698;11.472;2022-12-07T06:49:16;17.48;;;8.95;;
50769;SDS011;36740;48.698;11.472;2022-12-07T06:52:01;14.85;;;10.57;;
50769;SDS011;36740;48.698;11.472;2022-12-07T06:54:47;15.95;;;8.40;;
50769;SDS011;36740;48.698;11.472;2022-12-07T06:57:33;18.23;;;10.27;;
50769;SDS011;36740;48.698;11.472;2022-12-07T07:00:18;15.77;;;8.80;;
50769;SDS011;36740;48.698;11.472;2022-12-07T07:03:04;17.23;;;8.63;;
50769;SDS011;36740;48.698;11.472;2022-12-07T07:05:50;25.70;;;10.55;;
50769;SDS011;36740;48.698;11.472;2022-12-07T07:08:36;19.15;;;9.77;;
50769;SDS011;36740;48.698;11.472;2022-12-07T07:11:21;13.75;;;9.98;;
50769;SDS011;36740;48.698;11.472;2022-12-07T07:14:07;19.70;;;11.05;;
50769;SDS011;36740;48.698;11.472;2022-12-07T07:16:53;20.48;;;10.45;;
50769;SDS011;36740;48.698;11.472;2022-12-07T07:19:38;15.75;;;11.82;;
50769;SDS011;36740;48.698;11.472;2022-12-07T07:22:24;14.13;;;10.05;;
50769;SDS011;36740;48.698;11.472;2022-12-07T07:25:09;18.05;;;12.00;;
50769;SDS011;36740;48.698;11.472;2022-12-07T07:27:55;22.60;;;11.68;;
50769;SDS011;36740;48.698;11.472;2022-12-07T07:30:41;22.45;;;13.20;;
50769;SDS011;36740;48.698;11.472;2022-12-07T07:33:26;55.13;;;28.95;;
50769;SDS011;36740;48.698;11.472;2022-12-07T07:36:12;29.92;;;21.23;;
50769;SDS011;36740;48.698;11.472;2022-12-07T07:38:58;17.08;;;11.77;;
50769;SDS011;36740;48.698;11.472;2022-12-07T07:41:43;29.05;;;17.83;;
50769;SDS011;36740;48.698;11.472;2022-12-07T07:44:29;51.38;;;34.58;;
50769;SDS011;36740;48.698;11.472;2022-12-07T07:47:15;38.50;;;24.08;;
50769;SDS011;36740;48.698;11.472;2022-12-07T07:50:00;24.73;;;16.45;;
50769;SDS011;36740;48.698;11.472;2022-12-07T07:52:46;32.53;;;15.55;;
50769;SDS011;36740;48.698;11.472;2022-12-07T07:55:32;18.45;;;11.70;;
50769;SDS011;36740;48.698;11.472;2022-12-07T07:58:17;18.83;;;12.30;;
50769;SDS011;36740;48.698;11.472;2022-12-07T08:01:04;18.02;;;10.13;;
50769;SDS011;36740;48.698;11.472;2022-12-07T08:03:49;21.98;;;12.38;;
50769;SDS011;36740;48.698;11.472;2022-12-07T08:06:35;20.63;;;12.23;;
50769;SDS011;36740;48.698;11.472;2022-12-07T08:09:21;20.83;;;13.57;;
50769;SDS011;36740;48.698;11.472;2022-12-07T08:12:07;22.40;;;17.13;;
50769;SDS011;36740;48.698;11.472;2022-12-07T08:14:52;21.40;;;13.27;;
50769;SDS011;36740;48.698;11.472;2022-12-07T08:17:38;17.75;;;12.57;;
50769;SDS011;36740;48.698;11.472;2022-12-07T08:20:24;21.05;;;14.60;;
50769;SDS011;36740;48.698;11.472;2022-12-07T08:23:09;23.52;;;15.00;;
50769;SDS011;36740;48.698;11.472;2022-12-07T08:25:59;15.90;;;9.15;;
50769;SDS011;36740;48.698;11.472;2022-12-07T08:28:45;17.23;;;10.07;;
50769;SDS011;36740;48.698;11.472;2022-12-07T08:31:30;23.92;;;15.75;;
50769;SDS011;36740;48.698;11.472;2022-12-07T08:34:16;28.02;;;20.63;;
50769;SDS011;36740;48.698;11.472;2022-12-07T08:37:02;16.13;;;11.95;;
50769;SDS011;36740;48.698;11.472;2022-12-07T08:39:48;13.75;;;9.32;;
50769;SDS011;36740;48.698;11.472;2022-12-07T08:42:33;17.50;;;10.13;;
50769;SDS011;36740;48.698;11.472;2022-12-07T08:45:25;20.23;;;10.40;;
50769;SDS011;36740;48.698;11.472;2022-12-07T08:48:11;14.57;;;10.60;;
50769;SDS011;36740;48.698;11.472;2022-12-07T08:50:58;13.45;;;9.70;;
50769;SDS011;36740;48.698;11.472;2022-12-07T08:53:44;13.15;;;9.48;;
50769;SDS011;36740;48.698;11.472;2022-12-07T08:56:30;12.73;;;9.57;;
50769;SDS011;36740;48.698;11.472;2022-12-07T08:59:15;16.83;;;10.10;;
50769;SDS011;36740;48.698;11.472;2022-12-07T09:02:03;13.70;;;9.90;;
50769;SDS011;36740;48.698;11.472;2022-12-07T09:04:48;16.98;;;9.82;;
50769;SDS011;36740;48.698;11.472;2022-12-07T09:07:34;16.08;;;9.10;;
50769;SDS011;36740;48.698;11.472;2022-12-07T09:10:20;13.10;;;7.30;;
50769;SDS011;36740;48.698;11.472;2022-12-07T09:13:06;16.33;;;8.10;;
50769;SDS011;36740;48.698;11.472;2022-12-07T09:15:51;13.27;;;9.40;;
50769;SDS011;36740;48.698;11.472;2022-12-07T09:18:37;13.13;;;8.63;;
50769;SDS011;36740;48.698;11.472;2022-12-07T09:21:23;11.93;;;8.25;;
50769;SDS011;36740;48.698;11.472;2022-12-07T09:24:09;14.02;;;9.63;;
50769;SDS011;36740;48.698;11.472;2022-12-07T09:26:54;22.08;;;10.05;;
50769;SDS011;36740;48.698;11.472;2022-12-07T09:29:40;18.80;;;11.50;;
50769;SDS011;36740;48.698;11.472;2022-12-07T09:32:26;18.48;;;10.45;;
50769;SDS011;36740;48.698;11.472;2022-12-07T09:35:11;15.73;;;10.55;;
50769;SDS011;36740;48.698;11.472;2022-12-07T09:37:57;19.98;;;9.70;;
50769;SDS011;36740;48.698;11.472;2022-12-07T09:40:43;17.02;;;11.18;;
50769;SDS011;36740;48.698;11.472;2022-12-07T09:43:29;12.82;;;9.82;;
50769;SDS011;36740;48.698;11.472;2022-12-07T09:46:15;18.63;;;12.23;;
50769;SDS011;36740;48.698;11.472;2022-12-07T09:49:02;18.55;;;9.95;;
50769;SDS011;36740;48.698;11.472;2022-12-07T09:51:48;22.15;;;10.30;;
50769;SDS011;36740;48.698;11.472;2022-12-07T09:54:46;14.93;;;9.23;;
50769;SDS011;36740;48.698;11.472;2022-12-07T09:57:32;13.45;;;10.48;;
50769;SDS011;36740;48.698;11.472;2022-12-07T10:00:20;15.30;;;10.23;;
50769;SDS011;36740;48.698;11.472;2022-12-07T10:03:07;14.65;;;9.00;;
50769;SDS011;36740;48.698;11.472;2022-12-07T10:05:54;14.25;;;9.13;;
50769;SDS011;36740;48.698;11.472;2022-12-07T10:08:40;14.60;;;8.80;;
50769;SDS011;36740;48.698;11.472;2022-12-07T10:11:28;12.45;;;9.10;;
50769;SDS011;36740;48.698;11.472;2022-12-07T10:14:14;38.00;;;9.93;;
50769;SDS011;36740;48.698;11.472;2022-12-07T10:17:00;18.05;;;10.20;;
50769;SDS011;36740;48.698;11.472;2022-12-07T10:19:45;15.63;;;9.45;;
50769;SDS011;36740;48.698;11.472;2022-12-07T10:22:31;18.80;;;11.45;;
50769;SDS011;36740;48.698;11.472;2022-12-07T10:25:18;22.10;;;9.88;;
50769;SDS011;36740;48.698;11.472;2022-12-07T10:30:53;16.27;;;10.00;;
50769;SDS011;36740;48.698;11.472;2022-12-07T10:33:52;15.68;;;9.52;;
50769;SDS011;36740;48.698;11.472;2022-12-07T10:36:38;12.05;;;8.38;;
50769;SDS011;36740;48.698;11.472;2022-12-07T10:39:24;16.75;;;9.40;;
50769;SDS011;36740;48.698;11.472;2022-12-07T10:42:16;24.98;;;13.27;;
50769;SDS011;36740;48.698;11.472;2022-12-07T10:45:15;19.10;;;10.95;;
50769;SDS011;36740;48.698;11.472;2022-12-07T10:54:03;12.50;;;8.57;;
50769;SDS011;36740;48.698;11.472;2022-12-07T11:08:39;13.70;;;9.75;;
50769;SDS011;36740;48.698;11.472;2022-12-07T11:11:33;28.50;;;11.38;;
50769;SDS011;36740;48.698;11.472;2022-12-07T11:17:07;15.02;;;7.30;;
50769;SDS011;36740;48.698;11.472;2022-12-07T11:20:03;12.83;;;8.33;;
50769;SDS011;36740;48.698;11.472;2022-12-07T11:22:51;13.88;;;8.48;;
50769;SDS011;36740;48.698;11.472;2022-12-07T11:37:07;12.13;;;7.57;;
50769;SDS011;36740;48.698;11.472;2022-12-07T11:39:59;15.68;;;10.13;;
50769;SDS011;36740;48.698;11.472;2022-12-07T11:42:49;11.80;;;7.80;;
50769;SDS011;36740;48.698;11.472;2022-12-07T11:48:24;11.85;;;6.68;;
50769;SDS011;36740;48.698;11.472;2022-12-07T11:51:11;14.50;;;8.77;;
50769;SDS011;36740;48.698;11.472;2022-12-07T11:53:59;11.93;;;7.85;;
50769;SDS011;36740;48.698;11.472;2022-12-07T11:56:48;13.73;;;8.02;;
50769;SDS011;36740;48.698;11.472;2022-12-07T11:59:39;12.07;;;8.18;;
50769;SDS011;36740;48.698;11.472;2022-12-07T12:02:28;14.05;;;8.90;;
50769;SDS011;36740;48.698;11.472;2022-12-07T12:05:18;12.95;;;9.05;;
50769;SDS011;36740;48.698;11.472;2022-12-07T12:08:13;13.45;;;8.18;;
50769;SDS011;36740;48.698;11.472;2022-12-07T12:11:14;15.05;;;8.95;;
50769;SDS011;36740;48.698;11.472;2022-12-07T12:17:13;10.18;;;7.65;;
50769;SDS011;36740;48.698;11.472;2022-12-07T12:22:53;12.65;;;7.72;;
50769;SDS011;36740;48.698;11.472;2022-12-07T12:25:40;12.93;;;7.32;;
50769;SDS011;36740;48.698;11.472;2022-12-07T12:28:41;11.20;;;6.72;;
50769;SDS011;36740;48.698;11.472;2022-12-07T12:34:32;15.02;;;7.70;;
50769;SDS011;36740;48.698;11.472;2022-12-07T12:43:27;11.25;;;7.88;;
50769;SDS011;36740;48.698;11.472;2022-12-07T12:49:37;13.60;;;8.88;;
50769;SDS011;36740;48.698;11.472;2022-12-07T12:55:29;11.80;;;6.13;;
50769;SDS011;36740;48.698;11.472;2022-12-07T12:58:31;11.27;;;7.97;;
50769;SDS011;36740;48.698;11.472;2022-12-07T13:04:23;14.43;;;7.15;;
50769;SDS011;36740;48.698;11.472;2022-12-07T13:07:10;17.23;;;7.85;;
50769;SDS011;36740;48.698;11.472;2022-12-07T13:10:00;15.05;;;8.40;;
50769;SDS011;36740;48.698;11.472;2022-12-07T13:18:52;11.00;;;6.70;;
50769;SDS011;36740;48.698;11.472;2022-12-07T13:24:24;9.82;;;6.10;;
50769;SDS011;36740;48.698;11.472;2022-12-07T13:27:09;12.00;;;5.95;;
50769;SDS011;36740;48.698;11.472;2022-12-07T13:29:56;12.98;;;5.75;;
50769;SDS011;36740;48.698;11.472;2022-12-07T13:32:42;12.80;;;8.70;;
50769;SDS011;36740;48.698;11.472;2022-12-07T13:35:30;16.35;;;8.25;;
50769;SDS011;36740;48.698;11.472;2022-12-07T13:38:28;15.15;;;7.47;;
50769;SDS011;36740;48.698;11.472;2022-12-07T13:41:15;13.65;;;7.03;;
50769;SDS011;36740;48.698;11.472;2022-12-07T13:44:16;13.93;;;7.50;;
50769;SDS011;36740;48.698;11.472;2022-12-07T13:47:06;10.77;;;7.97;;
50769;SDS011;36740;48.698;11.472;2022-12-07T13:49:56;11.52;;;5.32;;
50769;SDS011;36740;48.698;11.472;2022-12-07T13:52:45;12.65;;;7.88;;
50769;SDS011;36740;48.698;11.472;2022-12-07T13:55:31;13.82;;;6.82;;
50769;SDS011;36740;48.698;11.472;2022-12-07T13:58:17;17.08;;;8.23;;
50769;SDS011;36740;48.698;11.472;2022-12-07T14:01:03;13.38;;;7.03;;
50769;SDS011;36740;48.698;11.472;2022-12-07T14:03:50;10.43;;;5.53;;
50769;SDS011;36740;48.698;11.472;2022-12-07T14:06:36;18.75;;;8.38;;
50769;SDS011;36740;48.698;11.472;2022-12-07T14:09:22;12.43;;;6.32;;
50769;SDS011;36740;48.698;11.472;2022-12-07T14:12:09;12.98;;;7.40;;
50769;SDS011;36740;48.698;11.472;2022-12-07T14:14:55;8.07;;;5.68;;
50769;SDS011;36740;48.698;11.472;2022-12-07T14:17:49;11.75;;;7.10;;
50769;SDS011;36740;48.698;11.472;2022-12-07T14:20:39;10.02;;;7.10;;
50769;SDS011;36740;48.698;11.472;2022-12-07T14:23:27;18.83;;;9.10;;
50769;SDS011;36740;48.698;11.472;2022-12-07T14:26:14;13.05;;;7.88;;
50769;SDS011;36740;48.698;11.472;2022-12-07T14:32:13;12.10;;;7.28;;
50769;SDS011;36740;48.698;11.472;2022-12-07T14:35:09;10.02;;;7.35;;
50769;SDS011;36740;48.698;11.472;2022-12-07T14:37:55;13.50;;;8.68;;
50769;SDS011;36740;48.698;11.472;2022-12-07T14:40:41;12.32;;;7.88;;
50769;SDS011;36740;48.698;11.472;2022-12-07T14:43:27;12.32;;;6.95;;
50769;SDS011;36740;48.698;11.472;2022-12-07T14:46:12;12.18;;;6.22;;
50769;SDS011;36740;48.698;11.472;2022-12-07T14:48:58;12.85;;;6.65;;
50769;SDS011;36740;48.698;11.472;2022-12-07T14:51:44;12.30;;;7.70;;
50769;SDS011;36740;48.698;11.472;2022-12-07T14:54:31;10.77;;;6.85;;
50769;SDS011;36740;48.698;11.472;2022-12-07T14:57:17;11.05;;;7.32;;
50769;SDS011;36740;48.698;11.472;2022-12-07T15:00:03;12.20;;;7.18;;
50769;SDS011;36740;48.698;11.472;2022-12-07T15:02:50;13.93;;;8.65;;
50769;SDS011;36740;48.698;11.472;2022-12-07T15:05:36;12.55;;;9.50;;
50769;SDS011;36740;48.698;11.472;2022-12-07T15:08:22;14.15;;;9.70;;
50769;SDS011;36740;48.698;11.472;2022-12-07T15:11:15;14.38;;;8.68;;
50769;SDS011;36740;48.698;11.472;2022-12-07T15:14:01;15.30;;;9.55;;
50769;SDS011;36740;48.698;11.472;2022-12-07T15:16:53;12.70;;;9.20;;
50769;SDS011;36740;48.698;11.472;2022-12-07T15:19:38;12.30;;;8.70;;
50769;SDS011;36740;48.698;11.472;2022-12-07T15:22:24;23.83;;;15.13;;
50769;SDS011;36740;48.698;11.472;2022-12-07T15:25:12;46.95;;;26.27;;
50769;SDS011;36740;48.698;11.472;2022-12-07T15:27:58;27.65;;;16.55;;
50769;SDS011;36740;48.698;11.472;2022-12-07T15:30:44;21.60;;;11.20;;
50769;SDS011;36740;48.698;11.472;2022-12-07T15:33:29;25.38;;;7.47;;
50769;SDS011;36740;48.698;11.472;2022-12-07T15:36:25;14.40;;;8.88;;
50769;SDS011;36740;48.698;11.472;2022-12-07T15:39:11;18.73;;;10.90;;
50769;SDS011;36740;48.698;11.472;2022-12-07T15:41:57;21.35;;;11.52;;
50769;SDS011;36740;48.698;11.472;2022-12-07T15:44:43;19.77;;;17.00;;
50769;SDS011;36740;48.698;11.472;2022-12-07T15:47:49;13.32;;;10.05;;
50769;SDS011;36740;48.698;11.472;2022-12-07T15:50:37;16.27;;;12.10;;
50769;SDS011;36740;48.698;11.472;2022-12-07T15:53:22;16.85;;;9.25;;
50769;SDS011;36740;48.698;11.472;2022-12-07T15:56:08;10.80;;;7.05;;
50769;SDS011;36740;48.698;11.472;2022-12-07T15:58:55;15.35;;;12.60;;
50769;SDS011;36740;48.698;11.472;2022-12-07T16:01:42;16.33;;;10.50;;
50769;SDS011;36740;48.698;11.472;2022-12-07T16:04:28;12.07;;;6.60;;
50769;SDS011;36740;48.698;11.472;2022-12-07T16:07:14;15.45;;;9.30;;
50769;SDS011;36740;48.698;11.472;2022-12-07T16:10:01;19.55;;;12.35;;
50769;SDS011;36740;48.698;11.472;2022-12-07T16:12:46;30.70;;;19.98;;
50769;SDS011;36740;48.698;11.472;2022-12-07T16:15:32;24.98;;;17.13;;
50769;SDS011;36740;48.698;11.472;2022-12-07T16:18:18;42.30;;;22.33;;
50769;SDS011;36740;48.698;11.472;2022-12-07T16:21:03;35.83;;;23.17;;
50769;SDS011;36740;48.698;11.472;2022-12-07T16:23:50;21.90;;;12.57;;
50769;SDS011;36740;48.698;11.472;2022-12-07T16:26:35;16.48;;;11.55;;
50769;SDS011;36740;48.698;11.472;2022-12-07T16:29:21;12.57;;;7.95;;
50769;SDS011;36740;48.698;11.472;2022-12-07T16:32:07;13.57;;;8.40;;
50769;SDS011;36740;48.698;11.472;2022-12-07T16:34:53;12.35;;;7.57;;
50769;SDS011;36740;48.698;11.472;2022-12-07T16:37:41;10.05;;;6.72;;
50769;SDS011;36740;48.698;11.472;2022-12-07T16:40:33;10.27;;;6.07;;
50769;SDS011;36740;48.698;11.472;2022-12-07T16:43:19;15.57;;;7.18;;
50769;SDS011;36740;48.698;11.472;2022-12-07T16:46:04;14.68;;;6.93;;
50769;SDS011;36740;48.698;11.472;2022-12-07T16:48:56;11.63;;;6.95;;
50769;SDS011;36740;48.698;11.472;2022-12-07T16:51:45;12.18;;;7.38;;
50769;SDS011;36740;48.698;11.472;2022-12-07T16:54:32;8.63;;;6.35;;
50769;SDS011;36740;48.698;11.472;2022-12-07T16:57:18;11.70;;;6.53;;
50769;SDS011;36740;48.698;11.472;2022-12-07T17:00:04;12.43;;;8.07;;
50769;SDS011;36740;48.698;11.472;2022-12-07T17:02:50;12.05;;;7.72;;
50769;SDS011;36740;48.698;11.472;2022-12-07T17:05:40;30.08;;;15.00;;
50769;SDS011;36740;48.698;11.472;2022-12-07T17:08:26;20.33;;;13.50;;
50769;SDS011;36740;48.698;11.472;2022-12-07T17:11:18;18.77;;;10.65;;
50769;SDS011;36740;48.698;11.472;2022-12-07T17:14:04;15.68;;;10.43;;
50769;SDS011;36740;48.698;11.472;2022-12-07T17:17:08;19.05;;;10.75;;
50769;SDS011;36740;48.698;11.472;2022-12-07T17:19:54;25.13;;;14.25;;
50769;SDS011;36740;48.698;11.472;2022-12-07T17:22:39;24.58;;;9.68;;
50769;SDS011;36740;48.698;11.472;2022-12-07T17:25:25;15.48;;;11.73;;
50769;SDS011;36740;48.698;11.472;2022-12-07T17:28:10;22.85;;;15.63;;
50769;SDS011;36740;48.698;11.472;2022-12-07T17:30:56;17.52;;;13.98;;
50769;SDS011;36740;48.698;11.472;2022-12-07T17:33:42;15.63;;;10.10;;
50769;SDS011;36740;48.698;11.472;2022-12-07T17:36:28;19.17;;;9.93;;
50769;SDS011;36740;48.698;11.472;2022-12-07T17:39:15;24.40;;;9.38;;
50769;SDS011;36740;48.698;11.472;2022-12-07T17:42:10;11.50;;;8.65;;
50769;SDS011;36740;48.698;11.472;2022-12-07T17:45:14;15.60;;;8.00;;
50769;SDS011;36740;48.698;11.472;2022-12-07T17:47:59;16.80;;;8.70;;
50769;SDS011;36740;48.698;11.472;2022-12-07T17:50:45;18.05;;;10.15;;
50769;SDS011;36740;48.698;11.472;2022-12-07T17:53:49;15.27;;;9.40;;
50769;SDS011;36740;48.698;11.472;2022-12-07T17:56:35;18.98;;;10.40;;
50769;SDS011;36740;48.698;11.472;2022-12-07T17:59:21;18.30;;;9.05;;
50769;SDS011;36740;48.698;11.472;2022-12-07T18:05:09;14.77;;;11.48;;